الصفحة الرئيسية
METAR-TAF:

METAR-TAF

مطار :

مابوتو, موزمبيق

دائرة عرض: 25-55S, خط طول: 032-34E, ارتفاع: 39 متر

مراقبة الطقس الحالي

تاريخ ووقت الإصدار 45 دقيقة قبل الساعة 19:00UTC
ريح 2 عقدةمن اتجاهات متغيرة
درجة الحرارة 18°درجة مئوية
الرطوبة 88%
ضغط 1024 hPa
الرؤية 10 كم أو أكثر
الغيوم لا تقل 1500 م ولا وجود لمزنة ركامية السحاب الأسود

METAR: FQMA 141900Z VRB02KT CAVOK 18/16 Q1024 NOSIG

زمن: 21:45 (19:45 UTC)

توقعات

تاريخ ووقت الإصدار 3ساعات و 45 دقيقة قبل الساعة 16:00UTC
التوقعات صالحة من14 الساعة 18 UTC إلى 15 الساعة 24 UTC
ريح 8 عقدة من الشرق/الجنوب الشرقي
الرؤية 10 كم أو أكثر
غيوم قليلة على ارتفاع 2500 قدم
أصبح
من 15 الساعة 01 UTC إلى 15 الساعة 03 UTC
ريح 5 عقدة من الغرب/الجنوب الغربي
أصبح
من 15 الساعة 10 UTC إلى 15 الساعة 12 UTC
ريح 8 عقدة من الشرق
أصبح
من 15 الساعة 20 UTC إلى 15 الساعة 22 UTC
ريح 1 عقدةمن اتجاهات متغيرة

TAF: FQMA 141600Z 1418/1524 11008KT 9999 FEW025 TX25/1513Z TN15/1502Z BECMG 1501/1503 25005KT BECMG 1510/1512 09008KT BECMG 1520/1522 VRB01KT

أرصاد الطقس والتوقعات من أكثر من 4000 مطار (تقارير الطقس للمطار METAR والتنبؤ بالطقس بالمطارTAF).

المحطات المتاحة هي النقط الصفراء والحمراء على الخريطة.

حرك المؤشر فوق النقطة لمعرفة اسم المحطة.

ثم انقر لمعرفة أرصاد وتوقعات الطقس.

لتغيير الخارطة: اضغط على الأزرار الخضراء مع رمز الصليب الأسود للتكبير. على الزر الأخضر مع شرطة للتصغير، أو على الأسهم الخضراء للخرائط المجاورة.


METAR-TAF: